sensor_id;sensor_type;location;lat;lon;timestamp;P1;durP1;ratioP1;P2;durP2;ratioP2
7919;SDS011;18778;47.610;9.776;2023-09-30T00:00:26;17.27;;;9.50;;
7919;SDS011;18778;47.610;9.776;2023-09-30T00:02:52;20.63;;;10.67;;
7919;SDS011;18778;47.610;9.776;2023-09-30T00:05:18;24.10;;;11.30;;
7919;SDS011;18778;47.610;9.776;2023-09-30T00:07:45;20.60;;;11.00;;
7919;SDS011;18778;47.610;9.776;2023-09-30T00:10:11;20.30;;;10.97;;
7919;SDS011;18778;47.610;9.776;2023-09-30T00:12:37;16.43;;;10.30;;
7919;SDS011;18778;47.610;9.776;2023-09-30T00:15:03;19.63;;;10.37;;
7919;SDS011;18778;47.610;9.776;2023-09-30T00:17:29;25.10;;;11.70;;
7919;SDS011;18778;47.610;9.776;2023-09-30T00:19:55;18.40;;;10.13;;
7919;SDS011;18778;47.610;9.776;2023-09-30T00:22:21;19.33;;;10.50;;
7919;SDS011;18778;47.610;9.776;2023-09-30T00:24:46;16.93;;;10.10;;
7919;SDS011;18778;47.610;9.776;2023-09-30T00:27:13;21.53;;;11.60;;
7919;SDS011;18778;47.610;9.776;2023-09-30T00:29:38;20.47;;;11.00;;
7919;SDS011;18778;47.610;9.776;2023-09-30T00:32:04;20.50;;;10.80;;
7919;SDS011;18778;47.610;9.776;2023-09-30T00:34:33;20.03;;;10.30;;
7919;SDS011;18778;47.610;9.776;2023-09-30T00:37:00;18.93;;;10.03;;
7919;SDS011;18778;47.610;9.776;2023-09-30T00:39:25;19.93;;;11.03;;
7919;SDS011;18778;47.610;9.776;2023-09-30T00:41:54;17.87;;;10.50;;
7919;SDS011;18778;47.610;9.776;2023-09-30T00:44:21;19.60;;;10.87;;
7919;SDS011;18778;47.610;9.776;2023-09-30T00:46:46;23.93;;;11.50;;
7919;SDS011;18778;47.610;9.776;2023-09-30T00:49:12;18.27;;;10.47;;
7919;SDS011;18778;47.610;9.776;2023-09-30T00:51:39;20.87;;;11.33;;
7919;SDS011;18778;47.610;9.776;2023-09-30T00:54:05;21.53;;;10.83;;
7919;SDS011;18778;47.610;9.776;2023-09-30T00:56:33;21.37;;;11.07;;
7919;SDS011;18778;47.610;9.776;2023-09-30T00:59:06;19.97;;;11.10;;
7919;SDS011;18778;47.610;9.776;2023-09-30T01:01:32;19.70;;;10.50;;
7919;SDS011;18778;47.610;9.776;2023-09-30T01:03:57;20.37;;;11.13;;
7919;SDS011;18778;47.610;9.776;2023-09-30T01:06:23;20.40;;;10.83;;
7919;SDS011;18778;47.610;9.776;2023-09-30T01:08:49;21.43;;;10.87;;
7919;SDS011;18778;47.610;9.776;2023-09-30T01:11:15;20.43;;;11.13;;
7919;SDS011;18778;47.610;9.776;2023-09-30T01:13:40;20.80;;;10.73;;
7919;SDS011;18778;47.610;9.776;2023-09-30T01:16:08;20.67;;;11.17;;
7919;SDS011;18778;47.610;9.776;2023-09-30T01:18:35;21.70;;;10.40;;
7919;SDS011;18778;47.610;9.776;2023-09-30T01:21:05;21.47;;;11.63;;
7919;SDS011;18778;47.610;9.776;2023-09-30T01:23:32;21.10;;;11.13;;
7919;SDS011;18778;47.610;9.776;2023-09-30T01:26:01;18.83;;;10.67;;
7919;SDS011;18778;47.610;9.776;2023-09-30T01:28:28;19.77;;;11.23;;
7919;SDS011;18778;47.610;9.776;2023-09-30T01:30:54;20.60;;;10.80;;
7919;SDS011;18778;47.610;9.776;2023-09-30T01:33:20;20.77;;;10.83;;
7919;SDS011;18778;47.610;9.776;2023-09-30T01:35:45;19.00;;;10.27;;
7919;SDS011;18778;47.610;9.776;2023-09-30T01:38:11;21.10;;;10.83;;
7919;SDS011;18778;47.610;9.776;2023-09-30T01:40:36;20.87;;;10.57;;
7919;SDS011;18778;47.610;9.776;2023-09-30T01:43:03;23.50;;;11.07;;
7919;SDS011;18778;47.610;9.776;2023-09-30T01:45:28;19.93;;;11.03;;
7919;SDS011;18778;47.610;9.776;2023-09-30T01:47:54;21.97;;;11.33;;
7919;SDS011;18778;47.610;9.776;2023-09-30T01:50:20;21.50;;;10.87;;
7919;SDS011;18778;47.610;9.776;2023-09-30T01:52:45;19.60;;;10.37;;
7919;SDS011;18778;47.610;9.776;2023-09-30T01:55:11;21.00;;;10.73;;
7919;SDS011;18778;47.610;9.776;2023-09-30T01:57:37;22.87;;;11.03;;
7919;SDS011;18778;47.610;9.776;2023-09-30T02:00:02;19.83;;;11.23;;
7919;SDS011;18778;47.610;9.776;2023-09-30T02:02:29;20.20;;;10.63;;
7919;SDS011;18778;47.610;9.776;2023-09-30T02:04:55;18.90;;;10.07;;
7919;SDS011;18778;47.610;9.776;2023-09-30T02:07:22;20.43;;;10.30;;
7919;SDS011;18778;47.610;9.776;2023-09-30T02:09:47;20.83;;;11.47;;
7919;SDS011;18778;47.610;9.776;2023-09-30T02:12:14;19.93;;;10.63;;
7919;SDS011;18778;47.610;9.776;2023-09-30T02:14:40;20.70;;;11.10;;
7919;SDS011;18778;47.610;9.776;2023-09-30T02:17:05;20.00;;;10.43;;
7919;SDS011;18778;47.610;9.776;2023-09-30T02:19:31;22.47;;;11.13;;
7919;SDS011;18778;47.610;9.776;2023-09-30T02:22:14;20.67;;;10.53;;
7919;SDS011;18778;47.610;9.776;2023-09-30T02:24:40;20.87;;;10.83;;
7919;SDS011;18778;47.610;9.776;2023-09-30T02:27:06;19.90;;;10.20;;
7919;SDS011;18778;47.610;9.776;2023-09-30T02:29:33;20.30;;;9.90;;
7919;SDS011;18778;47.610;9.776;2023-09-30T02:31:58;21.03;;;10.40;;
7919;SDS011;18778;47.610;9.776;2023-09-30T02:34:24;17.63;;;9.47;;
7919;SDS011;18778;47.610;9.776;2023-09-30T02:36:50;21.17;;;10.33;;
7919;SDS011;18778;47.610;9.776;2023-09-30T02:39:17;18.83;;;10.10;;
7919;SDS011;18778;47.610;9.776;2023-09-30T02:41:43;18.60;;;9.73;;
7919;SDS011;18778;47.610;9.776;2023-09-30T02:44:09;17.30;;;9.37;;
7919;SDS011;18778;47.610;9.776;2023-09-30T02:46:35;17.83;;;9.70;;
7919;SDS011;18778;47.610;9.776;2023-09-30T02:49:02;18.50;;;9.77;;
7919;SDS011;18778;47.610;9.776;2023-09-30T02:51:28;18.77;;;9.17;;
7919;SDS011;18778;47.610;9.776;2023-09-30T02:53:54;19.40;;;9.57;;
7919;SDS011;18778;47.610;9.776;2023-09-30T02:56:20;19.77;;;10.13;;
7919;SDS011;18778;47.610;9.776;2023-09-30T02:58:49;20.90;;;9.97;;
7919;SDS011;18778;47.610;9.776;2023-09-30T03:01:16;19.43;;;9.60;;
7919;SDS011;18778;47.610;9.776;2023-09-30T03:03:43;20.30;;;10.50;;
7919;SDS011;18778;47.610;9.776;2023-09-30T03:06:09;17.27;;;9.57;;
7919;SDS011;18778;47.610;9.776;2023-09-30T03:08:35;17.30;;;9.23;;
7919;SDS011;18778;47.610;9.776;2023-09-30T03:11:02;18.40;;;9.97;;
7919;SDS011;18778;47.610;9.776;2023-09-30T03:13:28;20.73;;;9.93;;
7919;SDS011;18778;47.610;9.776;2023-09-30T03:15:55;19.33;;;9.70;;
7919;SDS011;18778;47.610;9.776;2023-09-30T03:18:21;16.20;;;9.27;;
7919;SDS011;18778;47.610;9.776;2023-09-30T03:20:51;20.63;;;9.97;;
7919;SDS011;18778;47.610;9.776;2023-09-30T03:23:25;18.70;;;9.53;;
7919;SDS011;18778;47.610;9.776;2023-09-30T03:25:56;19.87;;;9.50;;
7919;SDS011;18778;47.610;9.776;2023-09-30T03:28:22;18.97;;;9.83;;
7919;SDS011;18778;47.610;9.776;2023-09-30T03:30:48;19.17;;;9.23;;
7919;SDS011;18778;47.610;9.776;2023-09-30T03:33:14;19.60;;;10.20;;
7919;SDS011;18778;47.610;9.776;2023-09-30T03:35:39;19.33;;;9.70;;
7919;SDS011;18778;47.610;9.776;2023-09-30T03:38:06;19.13;;;9.73;;
7919;SDS011;18778;47.610;9.776;2023-09-30T03:40:35;20.63;;;9.70;;
7919;SDS011;18778;47.610;9.776;2023-09-30T03:43:03;18.80;;;8.63;;
7919;SDS011;18778;47.610;9.776;2023-09-30T03:45:30;18.07;;;9.33;;
7919;SDS011;18778;47.610;9.776;2023-09-30T03:48:00;20.10;;;10.30;;
7919;SDS011;18778;47.610;9.776;2023-09-30T03:50:27;19.87;;;10.13;;
7919;SDS011;18778;47.610;9.776;2023-09-30T03:53:00;19.83;;;10.57;;
7919;SDS011;18778;47.610;9.776;2023-09-30T03:55:29;20.00;;;10.33;;
7919;SDS011;18778;47.610;9.776;2023-09-30T03:57:57;19.40;;;9.93;;
7919;SDS011;18778;47.610;9.776;2023-09-30T04:00:23;20.57;;;10.70;;
7919;SDS011;18778;47.610;9.776;2023-09-30T04:02:49;19.27;;;10.37;;
7919;SDS011;18778;47.610;9.776;2023-09-30T04:05:20;19.93;;;10.80;;
7919;SDS011;18778;47.610;9.776;2023-09-30T04:07:51;17.57;;;9.63;;
7919;SDS011;18778;47.610;9.776;2023-09-30T04:10:17;21.97;;;10.67;;
7919;SDS011;18778;47.610;9.776;2023-09-30T04:12:43;19.00;;;9.70;;
7919;SDS011;18778;47.610;9.776;2023-09-30T04:15:09;19.00;;;10.03;;
7919;SDS011;18778;47.610;9.776;2023-09-30T04:17:37;18.30;;;10.23;;
7919;SDS011;18778;47.610;9.776;2023-09-30T04:20:04;22.70;;;10.77;;
7919;SDS011;18778;47.610;9.776;2023-09-30T04:22:33;20.13;;;10.30;;
7919;SDS011;18778;47.610;9.776;2023-09-30T04:25:00;18.90;;;10.03;;
7919;SDS011;18778;47.610;9.776;2023-09-30T04:27:26;18.67;;;9.47;;
7919;SDS011;18778;47.610;9.776;2023-09-30T04:29:52;18.80;;;10.37;;
7919;SDS011;18778;47.610;9.776;2023-09-30T04:32:18;19.47;;;9.73;;
7919;SDS011;18778;47.610;9.776;2023-09-30T04:34:44;24.03;;;10.67;;
7919;SDS011;18778;47.610;9.776;2023-09-30T04:37:12;21.00;;;10.50;;
7919;SDS011;18778;47.610;9.776;2023-09-30T04:39:40;20.27;;;10.10;;
7919;SDS011;18778;47.610;9.776;2023-09-30T04:42:06;20.10;;;10.53;;
7919;SDS011;18778;47.610;9.776;2023-09-30T04:44:35;17.40;;;9.03;;
7919;SDS011;18778;47.610;9.776;2023-09-30T04:47:02;19.40;;;10.40;;
7919;SDS011;18778;47.610;9.776;2023-09-30T04:49:29;19.60;;;9.87;;
7919;SDS011;18778;47.610;9.776;2023-09-30T04:51:55;21.80;;;10.60;;
7919;SDS011;18778;47.610;9.776;2023-09-30T04:54:21;20.13;;;10.00;;
7919;SDS011;18778;47.610;9.776;2023-09-30T04:56:47;19.63;;;10.37;;
7919;SDS011;18778;47.610;9.776;2023-09-30T04:59:13;19.57;;;10.33;;
7919;SDS011;18778;47.610;9.776;2023-09-30T05:01:39;19.40;;;10.63;;
7919;SDS011;18778;47.610;9.776;2023-09-30T05:04:05;21.83;;;10.60;;
7919;SDS011;18778;47.610;9.776;2023-09-30T05:06:32;22.77;;;10.70;;
7919;SDS011;18778;47.610;9.776;2023-09-30T05:08:58;22.87;;;10.57;;
7919;SDS011;18778;47.610;9.776;2023-09-30T05:11:24;19.80;;;10.53;;
7919;SDS011;18778;47.610;9.776;2023-09-30T05:13:50;19.37;;;10.77;;
7919;SDS011;18778;47.610;9.776;2023-09-30T05:16:16;20.63;;;9.90;;
7919;SDS011;18778;47.610;9.776;2023-09-30T05:18:42;22.40;;;10.87;;
7919;SDS011;18778;47.610;9.776;2023-09-30T05:21:08;21.03;;;9.90;;
7919;SDS011;18778;47.610;9.776;2023-09-30T05:23:35;19.43;;;10.33;;
7919;SDS011;18778;47.610;9.776;2023-09-30T05:26:01;21.53;;;10.70;;
7919;SDS011;18778;47.610;9.776;2023-09-30T05:28:27;20.00;;;10.43;;
7919;SDS011;18778;47.610;9.776;2023-09-30T05:30:53;21.67;;;10.30;;
7919;SDS011;18778;47.610;9.776;2023-09-30T05:33:19;22.60;;;11.03;;
7919;SDS011;18778;47.610;9.776;2023-09-30T05:35:45;19.10;;;10.20;;
7919;SDS011;18778;47.610;9.776;2023-09-30T05:38:12;17.87;;;10.03;;
7919;SDS011;18778;47.610;9.776;2023-09-30T05:40:38;24.17;;;10.70;;
7919;SDS011;18778;47.610;9.776;2023-09-30T05:43:04;23.30;;;10.47;;
7919;SDS011;18778;47.610;9.776;2023-09-30T05:45:31;20.37;;;9.77;;
7919;SDS011;18778;47.610;9.776;2023-09-30T05:48:03;19.23;;;10.17;;
7919;SDS011;18778;47.610;9.776;2023-09-30T05:50:32;22.13;;;10.53;;
7919;SDS011;18778;47.610;9.776;2023-09-30T05:52:59;21.37;;;10.17;;
7919;SDS011;18778;47.610;9.776;2023-09-30T05:55:25;20.60;;;10.47;;
7919;SDS011;18778;47.610;9.776;2023-09-30T05:57:51;19.20;;;10.20;;
7919;SDS011;18778;47.610;9.776;2023-09-30T06:00:20;19.90;;;9.50;;
7919;SDS011;18778;47.610;9.776;2023-09-30T06:02:47;18.10;;;9.37;;
7919;SDS011;18778;47.610;9.776;2023-09-30T06:05:13;19.90;;;9.40;;
7919;SDS011;18778;47.610;9.776;2023-09-30T06:07:44;21.33;;;10.00;;
7919;SDS011;18778;47.610;9.776;2023-09-30T06:10:11;17.70;;;9.00;;
7919;SDS011;18778;47.610;9.776;2023-09-30T06:12:37;18.40;;;9.60;;
7919;SDS011;18778;47.610;9.776;2023-09-30T06:15:03;19.33;;;9.53;;
7919;SDS011;18778;47.610;9.776;2023-09-30T06:17:29;18.37;;;9.57;;
7919;SDS011;18778;47.610;9.776;2023-09-30T06:19:58;15.90;;;9.27;;
7919;SDS011;18778;47.610;9.776;2023-09-30T06:22:32;17.33;;;9.17;;
7919;SDS011;18778;47.610;9.776;2023-09-30T06:24:57;19.47;;;9.33;;
7919;SDS011;18778;47.610;9.776;2023-09-30T06:27:23;18.93;;;9.43;;
7919;SDS011;18778;47.610;9.776;2023-09-30T06:29:49;20.87;;;10.80;;
7919;SDS011;18778;47.610;9.776;2023-09-30T06:32:14;18.67;;;9.97;;
7919;SDS011;18778;47.610;9.776;2023-09-30T06:34:40;20.07;;;10.27;;
7919;SDS011;18778;47.610;9.776;2023-09-30T06:37:06;18.90;;;9.93;;
7919;SDS011;18778;47.610;9.776;2023-09-30T06:39:31;18.87;;;8.73;;
7919;SDS011;18778;47.610;9.776;2023-09-30T06:41:57;20.30;;;9.43;;
7919;SDS011;18778;47.610;9.776;2023-09-30T06:44:23;19.27;;;8.80;;
7919;SDS011;18778;47.610;9.776;2023-09-30T06:46:50;17.57;;;8.93;;
7919;SDS011;18778;47.610;9.776;2023-09-30T06:49:15;19.63;;;9.73;;
7919;SDS011;18778;47.610;9.776;2023-09-30T06:51:41;18.17;;;8.97;;
7919;SDS011;18778;47.610;9.776;2023-09-30T06:54:07;18.33;;;8.73;;
7919;SDS011;18778;47.610;9.776;2023-09-30T06:56:33;20.67;;;9.43;;
7919;SDS011;18778;47.610;9.776;2023-09-30T06:58:58;17.70;;;9.23;;
7919;SDS011;18778;47.610;9.776;2023-09-30T07:01:24;17.53;;;8.67;;
7919;SDS011;18778;47.610;9.776;2023-09-30T07:03:50;18.43;;;9.17;;
7919;SDS011;18778;47.610;9.776;2023-09-30T07:06:25;20.73;;;9.57;;
7919;SDS011;18778;47.610;9.776;2023-09-30T07:08:51;18.00;;;8.80;;
7919;SDS011;18778;47.610;9.776;2023-09-30T07:11:26;18.00;;;9.50;;
7919;SDS011;18778;47.610;9.776;2023-09-30T07:13:54;20.50;;;8.60;;
7919;SDS011;18778;47.610;9.776;2023-09-30T07:16:21;19.00;;;8.90;;
7919;SDS011;18778;47.610;9.776;2023-09-30T07:18:47;18.53;;;9.23;;
7919;SDS011;18778;47.610;9.776;2023-09-30T07:21:13;17.80;;;8.77;;
7919;SDS011;18778;47.610;9.776;2023-09-30T07:23:38;17.50;;;8.70;;
7919;SDS011;18778;47.610;9.776;2023-09-30T07:26:06;16.80;;;8.53;;
7919;SDS011;18778;47.610;9.776;2023-09-30T07:28:32;19.43;;;8.97;;
7919;SDS011;18778;47.610;9.776;2023-09-30T07:30:58;15.33;;;7.90;;
7919;SDS011;18778;47.610;9.776;2023-09-30T07:33:24;18.23;;;8.30;;
7919;SDS011;18778;47.610;9.776;2023-09-30T07:35:49;16.07;;;7.90;;
7919;SDS011;18778;47.610;9.776;2023-09-30T07:38:15;16.90;;;8.37;;
7919;SDS011;18778;47.610;9.776;2023-09-30T07:40:40;17.77;;;8.40;;
7919;SDS011;18778;47.610;9.776;2023-09-30T07:43:06;16.33;;;8.40;;
7919;SDS011;18778;47.610;9.776;2023-09-30T07:45:32;14.83;;;7.70;;
7919;SDS011;18778;47.610;9.776;2023-09-30T07:47:58;15.47;;;8.03;;
7919;SDS011;18778;47.610;9.776;2023-09-30T07:50:23;15.60;;;7.80;;
7919;SDS011;18778;47.610;9.776;2023-09-30T07:52:49;17.20;;;7.97;;
7919;SDS011;18778;47.610;9.776;2023-09-30T07:55:14;14.47;;;7.07;;
7919;SDS011;18778;47.610;9.776;2023-09-30T07:57:41;15.57;;;7.30;;
7919;SDS011;18778;47.610;9.776;2023-09-30T08:00:08;15.33;;;7.97;;
7919;SDS011;18778;47.610;9.776;2023-09-30T08:02:40;16.60;;;7.23;;
7919;SDS011;18778;47.610;9.776;2023-09-30T08:05:06;14.37;;;7.37;;
7919;SDS011;18778;47.610;9.776;2023-09-30T08:07:31;15.03;;;6.97;;
7919;SDS011;18778;47.610;9.776;2023-09-30T08:09:57;16.37;;;7.40;;
7919;SDS011;18778;47.610;9.776;2023-09-30T08:12:23;14.47;;;6.93;;
7919;SDS011;18778;47.610;9.776;2023-09-30T08:14:49;17.43;;;7.63;;
7919;SDS011;18778;47.610;9.776;2023-09-30T08:17:16;18.97;;;7.37;;
7919;SDS011;18778;47.610;9.776;2023-09-30T08:19:42;14.57;;;7.10;;
7919;SDS011;18778;47.610;9.776;2023-09-30T08:22:12;13.10;;;6.80;;
7919;SDS011;18778;47.610;9.776;2023-09-30T08:24:38;15.27;;;7.27;;
7919;SDS011;18778;47.610;9.776;2023-09-30T08:27:04;15.40;;;7.63;;
7919;SDS011;18778;47.610;9.776;2023-09-30T08:29:33;15.17;;;7.03;;
7919;SDS011;18778;47.610;9.776;2023-09-30T08:32:01;17.50;;;6.73;;
7919;SDS011;18778;47.610;9.776;2023-09-30T08:34:28;12.67;;;6.30;;
7919;SDS011;18778;47.610;9.776;2023-09-30T08:36:54;12.57;;;6.43;;
7919;SDS011;18778;47.610;9.776;2023-09-30T08:39:19;13.70;;;6.63;;
7919;SDS011;18778;47.610;9.776;2023-09-30T08:41:45;12.17;;;6.47;;
7919;SDS011;18778;47.610;9.776;2023-09-30T08:44:11;13.73;;;6.67;;
7919;SDS011;18778;47.610;9.776;2023-09-30T08:46:37;14.03;;;6.67;;
7919;SDS011;18778;47.610;9.776;2023-09-30T08:49:06;13.27;;;6.70;;
7919;SDS011;18778;47.610;9.776;2023-09-30T08:51:32;12.67;;;6.43;;
7919;SDS011;18778;47.610;9.776;2023-09-30T08:53:58;13.63;;;6.77;;
7919;SDS011;18778;47.610;9.776;2023-09-30T08:56:27;14.47;;;6.63;;
7919;SDS011;18778;47.610;9.776;2023-09-30T08:58:55;14.33;;;6.87;;
7919;SDS011;18778;47.610;9.776;2023-09-30T09:01:23;14.17;;;6.83;;
7919;SDS011;18778;47.610;9.776;2023-09-30T09:03:50;11.30;;;5.97;;
7919;SDS011;18778;47.610;9.776;2023-09-30T09:06:18;15.67;;;6.57;;
7919;SDS011;18778;47.610;9.776;2023-09-30T09:08:47;13.53;;;6.57;;
7919;SDS011;18778;47.610;9.776;2023-09-30T09:11:13;12.47;;;6.23;;
7919;SDS011;18778;47.610;9.776;2023-09-30T09:13:53;13.20;;;6.77;;
7919;SDS011;18778;47.610;9.776;2023-09-30T09:16:22;16.20;;;6.80;;
7919;SDS011;18778;47.610;9.776;2023-09-30T09:18:49;14.30;;;6.43;;
7919;SDS011;18778;47.610;9.776;2023-09-30T09:21:22;15.03;;;6.50;;
7919;SDS011;18778;47.610;9.776;2023-09-30T09:23:49;13.90;;;7.07;;
7919;SDS011;18778;47.610;9.776;2023-09-30T09:26:26;12.37;;;6.63;;
7919;SDS011;18778;47.610;9.776;2023-09-30T09:28:57;13.97;;;6.80;;
7919;SDS011;18778;47.610;9.776;2023-09-30T09:31:27;16.17;;;7.27;;
7919;SDS011;18778;47.610;9.776;2023-09-30T09:33:53;14.97;;;7.87;;
7919;SDS011;18778;47.610;9.776;2023-09-30T09:36:19;11.83;;;6.73;;
7919;SDS011;18778;47.610;9.776;2023-09-30T09:38:45;16.57;;;7.50;;
7919;SDS011;18778;47.610;9.776;2023-09-30T09:41:13;15.77;;;7.33;;
7919;SDS011;18778;47.610;9.776;2023-09-30T09:43:41;14.27;;;7.37;;
7919;SDS011;18778;47.610;9.776;2023-09-30T09:46:07;15.33;;;7.63;;
7919;SDS011;18778;47.610;9.776;2023-09-30T09:48:36;16.47;;;7.10;;
7919;SDS011;18778;47.610;9.776;2023-09-30T09:51:03;16.17;;;7.53;;
7919;SDS011;18778;47.610;9.776;2023-09-30T09:53:35;17.70;;;8.20;;
7919;SDS011;18778;47.610;9.776;2023-09-30T09:56:02;14.13;;;7.50;;
7919;SDS011;18778;47.610;9.776;2023-09-30T09:58:30;16.53;;;7.37;;
7919;SDS011;18778;47.610;9.776;2023-09-30T10:01:03;14.33;;;7.27;;
7919;SDS011;18778;47.610;9.776;2023-09-30T10:03:31;15.33;;;8.13;;
7919;SDS011;18778;47.610;9.776;2023-09-30T10:05:58;15.87;;;7.37;;
7919;SDS011;18778;47.610;9.776;2023-09-30T10:08:32;18.63;;;8.23;;
7919;SDS011;18778;47.610;9.776;2023-09-30T10:11:01;15.50;;;7.67;;
7919;SDS011;18778;47.610;9.776;2023-09-30T10:21:37;13.23;;;7.03;;
7919;SDS011;18778;47.610;9.776;2023-09-30T10:27:27;15.17;;;7.50;;
7919;SDS011;18778;47.610;9.776;2023-09-30T10:40:52;15.40;;;7.57;;
7919;SDS011;18778;47.610;9.776;2023-09-30T10:46:29;14.10;;;7.57;;
7919;SDS011;18778;47.610;9.776;2023-09-30T10:48:51;15.73;;;7.77;;
7919;SDS011;18778;47.610;9.776;2023-09-30T10:51:17;15.40;;;8.03;;
7919;SDS011;18778;47.610;9.776;2023-09-30T10:53:47;14.73;;;7.13;;
7919;SDS011;18778;47.610;9.776;2023-09-30T10:56:16;15.17;;;7.90;;
7919;SDS011;18778;47.610;9.776;2023-09-30T10:58:43;16.07;;;7.53;;
7919;SDS011;18778;47.610;9.776;2023-09-30T11:01:11;18.60;;;9.30;;
7919;SDS011;18778;47.610;9.776;2023-09-30T11:03:39;15.80;;;7.93;;
7919;SDS011;18778;47.610;9.776;2023-09-30T11:06:15;15.47;;;7.77;;
7919;SDS011;18778;47.610;9.776;2023-09-30T11:14:24;16.20;;;8.37;;
7919;SDS011;18778;47.610;9.776;2023-09-30T11:16:55;16.30;;;7.93;;
7919;SDS011;18778;47.610;9.776;2023-09-30T11:19:27;14.17;;;8.13;;
7919;SDS011;18778;47.610;9.776;2023-09-30T11:21:59;17.60;;;8.50;;
7919;SDS011;18778;47.610;9.776;2023-09-30T11:24:25;15.87;;;7.57;;
7919;SDS011;18778;47.610;9.776;2023-09-30T11:26:55;15.07;;;7.90;;
7919;SDS011;18778;47.610;9.776;2023-09-30T11:29:20;16.10;;;7.93;;
7919;SDS011;18778;47.610;9.776;2023-09-30T11:31:47;13.90;;;7.77;;
7919;SDS011;18778;47.610;9.776;2023-09-30T11:34:17;14.13;;;7.73;;
7919;SDS011;18778;47.610;9.776;2023-09-30T11:36:50;15.20;;;8.40;;
7919;SDS011;18778;47.610;9.776;2023-09-30T11:39:24;15.30;;;8.20;;
7919;SDS011;18778;47.610;9.776;2023-09-30T11:41:51;15.03;;;8.00;;
7919;SDS011;18778;47.610;9.776;2023-09-30T11:44:17;17.10;;;8.37;;
7919;SDS011;18778;47.610;9.776;2023-09-30T11:46:51;16.30;;;7.80;;
7919;SDS011;18778;47.610;9.776;2023-09-30T11:49:31;16.43;;;8.50;;
7919;SDS011;18778;47.610;9.776;2023-09-30T11:52:00;17.30;;;8.87;;
7919;SDS011;18778;47.610;9.776;2023-09-30T11:54:33;16.17;;;8.50;;
7919;SDS011;18778;47.610;9.776;2023-09-30T11:57:12;15.63;;;8.43;;
7919;SDS011;18778;47.610;9.776;2023-09-30T11:59:42;16.60;;;8.20;;
7919;SDS011;18778;47.610;9.776;2023-09-30T12:02:10;16.63;;;7.67;;
7919;SDS011;18778;47.610;9.776;2023-09-30T12:04:37;16.77;;;8.33;;
7919;SDS011;18778;47.610;9.776;2023-09-30T12:07:03;15.17;;;8.37;;
7919;SDS011;18778;47.610;9.776;2023-09-30T12:09:29;17.13;;;9.03;;
7919;SDS011;18778;47.610;9.776;2023-09-30T12:11:56;20.20;;;8.93;;
7919;SDS011;18778;47.610;9.776;2023-09-30T12:14:22;16.50;;;8.10;;
7919;SDS011;18778;47.610;9.776;2023-09-30T12:16:49;18.13;;;9.07;;
7919;SDS011;18778;47.610;9.776;2023-09-30T12:19:15;17.33;;;8.97;;
7919;SDS011;18778;47.610;9.776;2023-09-30T12:21:45;18.00;;;8.60;;
7919;SDS011;18778;47.610;9.776;2023-09-30T12:24:13;18.93;;;8.97;;
7919;SDS011;18778;47.610;9.776;2023-09-30T12:26:48;15.57;;;8.80;;
7919;SDS011;18778;47.610;9.776;2023-09-30T12:29:14;16.43;;;8.53;;
7919;SDS011;18778;47.610;9.776;2023-09-30T12:31:44;16.77;;;9.27;;
7919;SDS011;18778;47.610;9.776;2023-09-30T12:34:10;16.40;;;9.20;;
7919;SDS011;18778;47.610;9.776;2023-09-30T12:36:36;17.37;;;9.03;;
7919;SDS011;18778;47.610;9.776;2023-09-30T12:39:03;17.93;;;9.77;;
7919;SDS011;18778;47.610;9.776;2023-09-30T12:41:35;14.07;;;8.53;;
7919;SDS011;18778;47.610;9.776;2023-09-30T12:44:05;14.87;;;8.73;;
7919;SDS011;18778;47.610;9.776;2023-09-30T12:46:34;17.73;;;9.37;;
7919;SDS011;18778;47.610;9.776;2023-09-30T12:49:02;16.37;;;8.90;;
7919;SDS011;18778;47.610;9.776;2023-09-30T12:51:28;17.87;;;8.90;;
7919;SDS011;18778;47.610;9.776;2023-09-30T12:53:54;15.77;;;9.27;;
7919;SDS011;18778;47.610;9.776;2023-09-30T12:56:20;16.50;;;9.47;;
7919;SDS011;18778;47.610;9.776;2023-09-30T12:58:46;17.07;;;8.80;;
7919;SDS011;18778;47.610;9.776;2023-09-30T13:01:11;16.90;;;9.57;;
7919;SDS011;18778;47.610;9.776;2023-09-30T13:03:37;17.33;;;8.67;;
7919;SDS011;18778;47.610;9.776;2023-09-30T13:06:03;20.33;;;9.03;;
7919;SDS011;18778;47.610;9.776;2023-09-30T13:08:29;18.70;;;9.00;;
7919;SDS011;18778;47.610;9.776;2023-09-30T13:11:00;14.63;;;8.00;;
7919;SDS011;18778;47.610;9.776;2023-09-30T13:13:27;14.77;;;8.10;;
7919;SDS011;18778;47.610;9.776;2023-09-30T13:15:58;15.40;;;8.83;;
7919;SDS011;18778;47.610;9.776;2023-09-30T13:18:24;15.38;;;8.60;;
7919;SDS011;18778;47.610;9.776;2023-09-30T13:20:49;20.43;;;10.10;;
7919;SDS011;18778;47.610;9.776;2023-09-30T13:23:17;15.60;;;9.15;;
7919;SDS011;18778;47.610;9.776;2023-09-30T13:25:43;14.33;;;8.70;;
7919;SDS011;18778;47.610;9.776;2023-09-30T13:28:09;15.20;;;8.40;;
7919;SDS011;18778;47.610;9.776;2023-09-30T13:30:35;18.80;;;8.67;;
7919;SDS011;18778;47.610;9.776;2023-09-30T13:33:01;15.20;;;8.20;;
7919;SDS011;18778;47.610;9.776;2023-09-30T13:35:26;20.20;;;8.77;;
7919;SDS011;18778;47.610;9.776;2023-09-30T13:37:52;14.50;;;8.23;;
7919;SDS011;18778;47.610;9.776;2023-09-30T13:40:18;16.27;;;8.93;;
7919;SDS011;18778;47.610;9.776;2023-09-30T13:42:44;16.03;;;8.23;;
7919;SDS011;18778;47.610;9.776;2023-09-30T13:45:10;15.67;;;8.37;;
7919;SDS011;18778;47.610;9.776;2023-09-30T13:47:36;18.87;;;8.80;;
7919;SDS011;18778;47.610;9.776;2023-09-30T13:50:02;17.97;;;9.03;;
7919;SDS011;18778;47.610;9.776;2023-09-30T13:52:32;19.77;;;8.83;;
7919;SDS011;18778;47.610;9.776;2023-09-30T13:54:59;16.67;;;8.70;;
7919;SDS011;18778;47.610;9.776;2023-09-30T13:57:25;17.33;;;9.30;;
7919;SDS011;18778;47.610;9.776;2023-09-30T13:59:51;18.03;;;9.70;;
7919;SDS011;18778;47.610;9.776;2023-09-30T14:02:17;17.57;;;8.90;;
7919;SDS011;18778;47.610;9.776;2023-09-30T14:04:42;17.10;;;9.47;;
7919;SDS011;18778;47.610;9.776;2023-09-30T14:07:09;18.03;;;9.50;;
7919;SDS011;18778;47.610;9.776;2023-09-30T14:09:34;16.93;;;9.30;;
7919;SDS011;18778;47.610;9.776;2023-09-30T14:12:00;17.03;;;8.53;;
7919;SDS011;18778;47.610;9.776;2023-09-30T14:14:26;16.97;;;8.50;;
7919;SDS011;18778;47.610;9.776;2023-09-30T14:16:51;15.87;;;8.57;;
7919;SDS011;18778;47.610;9.776;2023-09-30T14:19:17;17.23;;;8.73;;
7919;SDS011;18778;47.610;9.776;2023-09-30T14:21:43;14.33;;;8.37;;
7919;SDS011;18778;47.610;9.776;2023-09-30T14:24:09;18.50;;;8.47;;
7919;SDS011;18778;47.610;9.776;2023-09-30T14:26:36;16.47;;;8.40;;
7919;SDS011;18778;47.610;9.776;2023-09-30T14:29:01;16.97;;;8.87;;
7919;SDS011;18778;47.610;9.776;2023-09-30T14:31:27;18.77;;;9.33;;
7919;SDS011;18778;47.610;9.776;2023-09-30T14:33:52;18.87;;;9.23;;
7919;SDS011;18778;47.610;9.776;2023-09-30T14:36:19;21.27;;;9.03;;
7919;SDS011;18778;47.610;9.776;2023-09-30T14:38:45;17.97;;;8.90;;
7919;SDS011;18778;47.610;9.776;2023-09-30T14:41:11;17.27;;;9.40;;
7919;SDS011;18778;47.610;9.776;2023-09-30T14:43:37;15.47;;;8.30;;
7919;SDS011;18778;47.610;9.776;2023-09-30T14:46:03;16.23;;;8.50;;
7919;SDS011;18778;47.610;9.776;2023-09-30T14:48:29;16.93;;;8.30;;
7919;SDS011;18778;47.610;9.776;2023-09-30T14:50:55;16.77;;;8.57;;
7919;SDS011;18778;47.610;9.776;2023-09-30T14:53:21;16.70;;;8.43;;
7919;SDS011;18778;47.610;9.776;2023-09-30T14:55:47;18.70;;;9.37;;
7919;SDS011;18778;47.610;9.776;2023-09-30T14:58:13;16.37;;;8.97;;
7919;SDS011;18778;47.610;9.776;2023-09-30T15:00:39;16.17;;;8.57;;
7919;SDS011;18778;47.610;9.776;2023-09-30T15:03:05;17.77;;;9.10;;
7919;SDS011;18778;47.610;9.776;2023-09-30T15:05:31;17.77;;;9.07;;
7919;SDS011;18778;47.610;9.776;2023-09-30T15:07:57;16.77;;;9.27;;
7919;SDS011;18778;47.610;9.776;2023-09-30T15:10:24;17.07;;;9.17;;
7919;SDS011;18778;47.610;9.776;2023-09-30T15:12:50;16.50;;;8.57;;